createdAt,value
2023-03-29T00:01:42.509Z,100412.16
2023-03-29T00:04:13.942Z,100416.44
2023-03-29T00:06:42.123Z,100409.03
2023-03-29T00:09:10.054Z,100405.44
2023-03-29T00:11:36.914Z,100399.69
2023-03-29T00:14:03.801Z,100394.06
2023-03-29T00:16:31.180Z,100385.84
2023-03-29T00:18:58.390Z,100382.16
2023-03-29T00:21:25.612Z,100387.78
2023-03-29T00:23:52.392Z,100381.06
2023-03-29T00:26:19.248Z,100380.59
2023-03-29T00:28:46.135Z,100369.91
2023-03-29T00:31:15.103Z,100360.78
2023-03-29T00:33:42.527Z,100351.91
2023-03-29T00:36:11.215Z,100339.22
2023-03-29T00:38:38.740Z,100352.66
2023-03-29T00:41:07.999Z,100346.06
2023-03-29T00:43:57.737Z,100326.06
2023-03-29T00:46:27.283Z,100306.63
2023-03-29T00:48:58.805Z,100317.31
2023-03-29T00:51:29.090Z,100321.94
2023-03-29T00:54:00.997Z,100317.50
2023-03-29T00:56:35.381Z,100315.25
2023-03-29T00:59:07.212Z,100315.50
2023-03-29T01:01:42.263Z,100313.53
2023-03-29T01:04:19.471Z,100299.09
2023-03-29T01:07:05.998Z,100296.84
2023-03-29T01:09:35.602Z,100273.72
2023-03-29T01:12:08.658Z,100268.88
2023-03-29T01:14:43.768Z,100277.06
2023-03-29T01:17:13.008Z,100267.31
2023-03-29T01:19:50.295Z,100285.66
2023-03-29T01:22:44.968Z,100279.56
2023-03-29T01:25:34.133Z,100272.84
2023-03-29T01:28:08.903Z,100263.03
2023-03-29T01:30:41.849Z,100261.78
2023-03-29T01:33:30.207Z,100268.72
2023-03-29T01:36:05.020Z,100255.00
2023-03-29T01:38:40.409Z,100252.41
2023-03-29T01:41:08.017Z,100251.97
2023-03-29T01:43:37.242Z,100241.84
2023-03-29T01:46:43.806Z,100250.72
2023-03-29T01:49:24.412Z,100232.53
2023-03-29T01:52:01.365Z,100238.13
2023-03-29T01:54:36.213Z,100237.72
2023-03-29T01:57:05.863Z,100231.50
2023-03-29T01:59:35.109Z,100230.75
2023-03-29T02:02:05.911Z,100229.59
2023-03-29T02:04:39.958Z,100224.38
2023-03-29T02:07:09.473Z,100219.78
2023-03-29T02:09:37.949Z,100216.72
2023-03-29T02:12:07.146Z,100211.88
2023-03-29T02:14:33.868Z,100202.84
2023-03-29T02:17:15.358Z,100195.81
2023-03-29T02:19:42.575Z,100188.38
2023-03-29T02:22:12.790Z,100190.25
2023-03-29T02:24:42.507Z,100186.00
2023-03-29T02:27:09.284Z,100186.09
2023-03-29T02:29:36.339Z,100178.03
2023-03-29T02:32:13.415Z,100158.97
2023-03-29T02:34:50.927Z,100150.41
2023-03-29T02:37:20.282Z,100148.50
2023-03-29T02:39:49.864Z,100150.22
2023-03-29T02:42:20.589Z,100154.31
2023-03-29T02:44:52.540Z,100151.44
2023-03-29T02:47:38.331Z,100143.06
2023-03-29T02:50:06.716Z,100133.75
2023-03-29T02:52:41.495Z,100124.06
2023-03-29T02:55:16.778Z,100118.28
2023-03-29T02:57:44.077Z,100112.34
2023-03-29T03:00:12.349Z,100095.69
2023-03-29T03:02:39.151Z,100101.59
2023-03-29T03:05:07.128Z,100096.38
2023-03-29T03:07:33.902Z,100098.50
2023-03-29T03:10:01.048Z,100080.28
2023-03-29T03:12:27.900Z,100076.06
2023-03-29T03:14:54.774Z,100080.88
2023-03-29T03:17:23.158Z,100064.78
2023-03-29T03:19:51.017Z,100050.25
2023-03-29T03:22:17.734Z,100045.00
2023-03-29T03:24:46.207Z,100040.56
2023-03-29T03:27:13.715Z,100036.63
2023-03-29T03:29:41.616Z,100024.59
2023-03-29T03:32:08.471Z,100038.91
2023-03-29T03:34:35.705Z,100036.91
2023-03-29T03:37:02.421Z,100046.16
2023-03-29T03:39:29.650Z,100043.97
2023-03-29T03:41:56.439Z,100041.66
2023-03-29T03:44:23.152Z,100043.59
2023-03-29T03:46:49.841Z,100032.06
2023-03-29T03:49:16.809Z,100030.28
2023-03-29T03:51:45.574Z,100035.56
2023-03-29T03:54:12.483Z,100038.59
2023-03-29T03:56:39.657Z,100033.78
2023-03-29T03:59:07.349Z,100020.03
2023-03-29T04:01:35.539Z,100011.56
2023-03-29T04:04:03.240Z,100011.56
2023-03-29T04:06:30.759Z,100019.59
2023-03-29T04:08:57.996Z,100001.56
2023-03-29T04:11:24.750Z,100007.09
2023-03-29T04:13:51.727Z,100003.22
2023-03-29T04:16:18.476Z,99996.53
2023-03-29T04:18:45.420Z,99987.81
2023-03-29T04:21:12.229Z,99988.94
2023-03-29T04:23:38.994Z,99978.50
2023-03-29T04:26:06.642Z,99969.06
2023-03-29T04:28:33.544Z,99959.88
2023-03-29T04:31:00.580Z,99956.00
2023-03-29T04:33:29.422Z,99957.81
2023-03-29T04:35:57.050Z,99953.19
2023-03-29T04:38:24.616Z,99951.25
2023-03-29T04:40:51.437Z,99945.16
2023-03-29T04:43:18.299Z,99931.00
2023-03-29T04:45:45.612Z,99923.22
2023-03-29T04:48:12.389Z,99922.19
2023-03-29T04:50:39.229Z,99911.69
2023-03-29T04:53:07.496Z,99900.16
2023-03-29T04:55:34.279Z,99897.59
2023-03-29T04:58:01.258Z,99902.03
2023-03-29T05:00:28.739Z,99895.50
2023-03-29T05:02:55.638Z,99891.19
2023-03-29T05:05:22.734Z,99896.47
2023-03-29T05:07:49.914Z,99886.47
2023-03-29T05:10:17.212Z,99873.44
2023-03-29T05:12:44.259Z,99875.09
2023-03-29T05:15:11.224Z,99861.22
2023-03-29T05:17:38.272Z,99851.66
2023-03-29T05:20:12.879Z,99848.88
2023-03-29T05:22:40.451Z,99847.34
2023-03-29T05:25:08.469Z,99839.00
2023-03-29T05:27:35.398Z,99836.53
2023-03-29T05:30:02.239Z,99830.69
2023-03-29T05:32:29.248Z,99825.97
2023-03-29T05:34:56.080Z,99839.97
2023-03-29T05:37:22.840Z,99819.28
2023-03-29T05:39:49.835Z,99826.25
2023-03-29T05:42:19.278Z,99807.63
2023-03-29T05:44:46.044Z,99796.09
2023-03-29T05:47:12.768Z,99792.38
2023-03-29T05:49:39.653Z,99789.44
2023-03-29T05:52:06.868Z,99791.09
2023-03-29T05:54:33.672Z,99776.25
2023-03-29T05:57:00.540Z,99772.41
2023-03-29T05:59:29.850Z,99776.56
2023-03-29T06:01:56.915Z,99765.84
2023-03-29T06:04:24.704Z,99776.81
2023-03-29T06:06:53.194Z,99766.56
2023-03-29T06:09:20.049Z,99760.19
2023-03-29T06:11:47.685Z,99748.78
2023-03-29T06:14:15.458Z,99745.75
2023-03-29T06:16:43.371Z,99732.97
2023-03-29T06:19:10.090Z,99743.81
2023-03-29T06:21:36.853Z,99737.84
2023-03-29T06:24:04.263Z,99732.16
2023-03-29T06:26:31.473Z,99718.00
2023-03-29T06:28:58.409Z,99712.03
2023-03-29T06:31:25.546Z,99712.84
2023-03-29T06:33:52.350Z,99703.97
2023-03-29T06:36:20.351Z,99714.53
2023-03-29T06:38:47.299Z,99730.31
2023-03-29T06:41:15.014Z,99717.00
2023-03-29T06:43:42.057Z,99704.41
2023-03-29T06:46:12.143Z,99680.22
2023-03-29T06:48:40.299Z,99679.69
2023-03-29T06:51:07.839Z,99677.59
2023-03-29T06:53:35.089Z,99677.03
2023-03-29T06:56:05.497Z,99664.25
2023-03-29T06:58:32.306Z,99654.84
2023-03-29T07:01:02.669Z,99664.53
2023-03-29T07:03:30.085Z,99660.81
2023-03-29T07:06:04.120Z,99644.31
2023-03-29T07:08:35.322Z,99650.00
2023-03-29T07:11:03.374Z,99641.41
2023-03-29T07:13:30.801Z,99649.13
2023-03-29T07:15:57.583Z,99632.75
2023-03-29T07:18:24.319Z,99629.03
2023-03-29T07:20:52.326Z,99615.16
2023-03-29T07:23:19.478Z,99600.63
2023-03-29T07:25:47.058Z,99600.63
2023-03-29T07:28:13.920Z,99606.44
2023-03-29T07:30:41.012Z,99593.44
2023-03-29T07:33:09.590Z,99580.81
2023-03-29T07:35:36.696Z,99571.91
2023-03-29T07:38:04.054Z,99570.69
2023-03-29T07:40:31.308Z,99551.38
2023-03-29T07:42:59.056Z,99552.09
2023-03-29T07:45:28.728Z,99561.97
2023-03-29T07:47:58.021Z,99542.66
2023-03-29T07:50:25.489Z,99550.88
2023-03-29T07:52:52.258Z,99533.50
2023-03-29T07:55:19.153Z,99544.75
2023-03-29T07:57:45.935Z,99548.06
2023-03-29T08:00:17.054Z,99534.31
2023-03-29T08:02:44.810Z,99548.88
2023-03-29T08:05:13.858Z,99544.94
2023-03-29T08:07:43.288Z,99540.34
2023-03-29T08:10:16.600Z,99531.63
2023-03-29T08:12:44.858Z,99533.44
2023-03-29T08:15:13.301Z,99532.56
2023-03-29T08:17:40.335Z,99534.25
2023-03-29T08:20:10.809Z,99531.44
2023-03-29T08:22:38.117Z,99539.59
2023-03-29T08:25:06.027Z,99528.22
2023-03-29T08:27:33.208Z,99528.16
2023-03-29T08:29:59.946Z,99542.34
2023-03-29T08:32:26.781Z,99537.16
2023-03-29T08:34:53.532Z,99534.03
2023-03-29T08:37:20.705Z,99526.38
2023-03-29T08:39:48.575Z,99529.22
2023-03-29T08:42:34.464Z,99532.81
2023-03-29T08:45:21.042Z,99535.94
2023-03-29T08:48:06.563Z,99520.97
2023-03-29T08:50:38.183Z,99513.22
2023-03-29T08:53:12.573Z,99505.69
2023-03-29T08:55:45.840Z,99495.50
2023-03-29T08:58:17.411Z,99493.16
2023-03-29T09:01:06.205Z,99502.41
2023-03-29T09:03:38.650Z,99499.41
2023-03-29T09:06:08.735Z,99484.66
2023-03-29T09:08:40.369Z,99498.03
2023-03-29T09:11:26.259Z,99509.91
2023-03-29T09:14:14.792Z,99511.97
2023-03-29T09:16:45.150Z,99506.72
2023-03-29T09:19:28.702Z,99496.66
2023-03-29T09:22:14.211Z,99515.00
2023-03-29T09:24:54.198Z,99505.44
2023-03-29T09:27:34.625Z,99507.41
2023-03-29T09:30:30.884Z,99488.63
2023-03-29T09:33:08.434Z,99493.38
2023-03-29T09:35:43.547Z,99484.59
2023-03-29T09:38:15.107Z,99472.13
2023-03-29T09:40:53.392Z,99462.75
2023-03-29T09:43:31.555Z,99477.50
2023-03-29T09:46:01.866Z,99465.56
2023-03-29T09:48:34.684Z,99480.50
2023-03-29T09:51:03.358Z,99483.47
2023-03-29T09:53:30.634Z,99492.78
2023-03-29T09:55:57.646Z,99483.84
2023-03-29T09:58:27.609Z,99486.63
2023-03-29T10:00:58.355Z,99488.16
2023-03-29T10:03:30.647Z,99483.00
2023-03-29T10:06:00.390Z,99476.75
2023-03-29T10:08:29.907Z,99483.19
2023-03-29T10:11:03.800Z,99479.78
2023-03-29T10:13:36.933Z,99501.94
2023-03-29T10:16:09.370Z,99498.44
2023-03-29T10:18:44.953Z,99501.28
2023-03-29T10:21:16.830Z,99500.63
2023-03-29T10:23:44.401Z,99488.38
2023-03-29T10:26:33.341Z,99491.34
2023-03-29T10:29:04.898Z,99493.88
2023-03-29T10:31:38.271Z,99492.88
2023-03-29T10:34:06.714Z,99493.72
2023-03-29T10:36:34.223Z,99474.31
2023-03-29T10:39:05.911Z,99459.31
2023-03-29T10:41:35.628Z,99461.50
2023-03-29T10:44:02.992Z,99467.00
2023-03-29T10:46:32.688Z,99456.28
2023-03-29T10:49:06.365Z,99455.06
2023-03-29T10:51:34.577Z,99462.81
2023-03-29T10:54:02.243Z,99461.50
2023-03-29T10:56:43.240Z,99462.06
2023-03-29T10:59:32.788Z,99458.31
2023-03-29T11:02:17.231Z,99459.16
2023-03-29T11:05:00.324Z,99448.81
2023-03-29T11:07:27.287Z,99448.28
2023-03-29T11:10:12.937Z,99448.66
2023-03-29T11:13:08.607Z,99461.88
2023-03-29T11:16:06.695Z,99452.91
2023-03-29T11:19:14.604Z,99470.66
2023-03-29T11:21:52.200Z,99470.34
2023-03-29T11:24:34.523Z,99473.13
2023-03-29T11:27:08.039Z,99470.75
2023-03-29T11:30:03.454Z,99479.75
2023-03-29T11:33:03.918Z,99481.16
2023-03-29T11:35:42.801Z,99479.97
2023-03-29T11:38:24.504Z,99491.06
2023-03-29T11:41:14.957Z,99499.84
2023-03-29T11:43:51.125Z,99495.81
2023-03-29T11:46:39.244Z,99496.00
2023-03-29T11:49:19.597Z,99502.53
2023-03-29T11:52:10.536Z,99491.59
2023-03-29T11:54:57.491Z,99485.72
2023-03-29T11:57:38.413Z,99476.97
2023-03-29T12:00:32.949Z,99481.34
2023-03-29T12:03:24.492Z,99477.56
2023-03-29T12:06:37.890Z,99483.50
2023-03-29T12:09:25.669Z,99487.03
2023-03-29T12:11:55.165Z,99474.88
2023-03-29T12:14:28.159Z,99467.69
2023-03-29T12:17:04.406Z,99490.94
2023-03-29T12:19:43.519Z,99492.59
2023-03-29T12:22:11.117Z,99475.88
2023-03-29T12:24:41.960Z,99476.97
2023-03-29T12:27:30.373Z,99465.22
2023-03-29T12:30:18.420Z,99463.78
2023-03-29T12:32:57.629Z,99464.63
2023-03-29T12:35:43.041Z,99466.22
2023-03-29T12:38:30.977Z,99465.06
2023-03-29T12:41:00.763Z,99467.41
2023-03-29T12:43:39.215Z,99465.16
2023-03-29T12:46:11.492Z,99454.31
2023-03-29T12:48:41.717Z,99463.06
2023-03-29T12:51:14.010Z,99465.28
2023-03-29T12:53:42.891Z,99475.06
2023-03-29T12:56:16.967Z,99467.72
2023-03-29T12:59:10.969Z,99471.03
2023-03-29T13:01:41.537Z,99479.84
2023-03-29T13:04:21.039Z,99474.97
2023-03-29T13:06:47.897Z,99487.38
2023-03-29T13:09:22.666Z,99485.47
2023-03-29T13:11:54.674Z,99479.03
2023-03-29T13:14:25.185Z,99481.72
2023-03-29T13:16:52.207Z,99476.72
2023-03-29T13:19:30.935Z,99486.91
2023-03-29T13:22:16.368Z,99482.41
2023-03-29T13:25:14.696Z,99483.38
2023-03-29T13:28:01.377Z,99487.81
2023-03-29T13:30:46.143Z,99479.16
2023-03-29T13:33:33.963Z,99465.81
2023-03-29T13:36:04.075Z,99467.66
2023-03-29T13:38:35.644Z,99463.59
2023-03-29T13:41:04.258Z,99454.38
2023-03-29T13:43:42.197Z,99459.22
2023-03-29T13:46:21.334Z,99451.59
2023-03-29T13:48:55.332Z,99447.09
2023-03-29T13:51:47.888Z,99446.47
2023-03-29T13:54:42.004Z,99447.31
2023-03-29T13:57:09.066Z,99443.44
2023-03-29T14:00:00.659Z,99440.59
2023-03-29T14:02:50.257Z,99433.31
2023-03-29T14:05:21.813Z,99437.19
2023-03-29T14:07:52.792Z,99435.00
2023-03-29T14:10:26.260Z,99427.38
2023-03-29T14:12:55.955Z,99424.81
2023-03-29T14:15:26.068Z,99429.66
2023-03-29T14:18:00.299Z,99425.56
2023-03-29T14:20:28.802Z,99424.47
2023-03-29T14:22:55.591Z,99428.94
2023-03-29T14:25:24.488Z,99425.16
2023-03-29T14:27:51.221Z,99421.19
2023-03-29T14:30:20.320Z,99431.53
2023-03-29T14:32:50.303Z,99421.66
2023-03-29T14:35:17.661Z,99423.25
2023-03-29T14:37:47.975Z,99420.78
2023-03-29T14:40:24.606Z,99410.44
2023-03-29T14:42:51.522Z,99411.28
2023-03-29T14:45:23.360Z,99409.84
2023-03-29T14:47:51.435Z,99413.22
2023-03-29T14:50:30.986Z,99410.91
2023-03-29T14:52:59.568Z,99413.31
2023-03-29T14:55:27.424Z,99406.78
2023-03-29T14:57:55.447Z,99405.78
2023-03-29T15:00:30.305Z,99408.66
2023-03-29T15:03:02.372Z,99403.72
2023-03-29T15:05:33.995Z,99404.38
2023-03-29T15:08:02.637Z,99387.22
2023-03-29T15:10:33.537Z,99403.72
2023-03-29T15:13:03.698Z,99398.31
2023-03-29T15:15:33.036Z,99400.00
2023-03-29T15:18:01.025Z,99386.66
2023-03-29T15:20:35.679Z,99386.06
2023-03-29T15:23:14.630Z,99383.78
2023-03-29T15:25:53.139Z,99379.91
2023-03-29T15:28:28.491Z,99375.44
2023-03-29T15:31:12.493Z,99366.84
2023-03-29T15:33:41.992Z,99360.66
2023-03-29T15:36:11.263Z,99367.00
2023-03-29T15:38:44.438Z,99360.88
2023-03-29T15:41:13.766Z,99360.06
2023-03-29T15:43:41.533Z,99349.41
2023-03-29T15:46:10.878Z,99347.84
2023-03-29T15:48:37.790Z,99345.31
2023-03-29T15:51:06.794Z,99354.91
2023-03-29T15:53:34.147Z,99345.22
2023-03-29T15:56:04.145Z,99354.91
2023-03-29T15:58:32.666Z,99347.72
2023-03-29T16:01:11.225Z,99340.28
2023-03-29T16:03:39.367Z,99345.34
2023-03-29T16:06:06.754Z,99339.56
2023-03-29T16:08:33.518Z,99339.19
2023-03-29T16:11:00.506Z,99335.88
2023-03-29T16:13:27.224Z,99338.75
2023-03-29T16:15:54.053Z,99348.41
2023-03-29T16:18:21.264Z,99344.38
2023-03-29T16:20:48.161Z,99344.91
2023-03-29T16:23:14.984Z,99340.03
2023-03-29T16:25:41.805Z,99339.00
2023-03-29T16:28:10.161Z,99335.66
2023-03-29T16:30:38.464Z,99340.00
2023-03-29T16:33:08.445Z,99337.56
2023-03-29T16:35:38.589Z,99336.41
2023-03-29T16:38:06.554Z,99332.66
2023-03-29T16:40:33.482Z,99331.22
2023-03-29T16:43:00.825Z,99317.28
2023-03-29T16:45:27.559Z,99327.59
2023-03-29T16:47:54.643Z,99330.44
2023-03-29T16:50:22.154Z,99324.28
2023-03-29T16:52:51.503Z,99328.38
2023-03-29T16:55:19.172Z,99331.06
2023-03-29T16:57:47.440Z,99336.50
2023-03-29T17:00:17.067Z,99328.59
2023-03-29T17:02:44.550Z,99331.53
2023-03-29T17:05:12.578Z,99328.91
2023-03-29T17:07:39.986Z,99334.47
2023-03-29T17:10:08.367Z,99330.78
2023-03-29T17:12:36.226Z,99328.31
2023-03-29T17:15:04.402Z,99324.97
2023-03-29T17:17:31.212Z,99333.06
2023-03-29T17:19:58.217Z,99332.97
2023-03-29T17:22:25.578Z,99330.63
2023-03-29T17:24:52.589Z,99334.03
2023-03-29T17:27:19.334Z,99337.81
2023-03-29T17:29:46.078Z,99340.66
2023-03-29T17:32:12.753Z,99338.38
2023-03-29T17:34:39.523Z,99328.09
2023-03-29T17:37:06.227Z,99338.13
2023-03-29T17:39:37.299Z,99335.22
2023-03-29T17:42:05.000Z,99339.72
2023-03-29T17:44:33.409Z,99341.28
2023-03-29T17:47:01.160Z,99342.75
2023-03-29T17:49:28.393Z,99343.94
2023-03-29T17:51:55.464Z,99350.44
2023-03-29T17:54:22.202Z,99352.09
2023-03-29T17:56:49.245Z,99351.94
2023-03-29T17:59:16.719Z,99356.75
2023-03-29T18:01:43.672Z,99347.81
2023-03-29T18:04:12.206Z,99345.81
2023-03-29T18:06:39.008Z,99346.31
2023-03-29T18:09:06.008Z,99347.16
2023-03-29T18:11:33.182Z,99341.50
2023-03-29T18:14:01.132Z,99323.78
2023-03-29T18:16:28.378Z,99335.34
2023-03-29T18:18:55.250Z,99340.63
2023-03-29T18:21:22.363Z,99330.69
2023-03-29T18:23:50.062Z,99330.16
2023-03-29T18:26:17.001Z,99331.44
2023-03-29T18:28:47.383Z,99328.03
2023-03-29T18:31:15.147Z,99328.66
2023-03-29T18:33:42.031Z,99325.34
2023-03-29T18:36:12.986Z,99332.41
2023-03-29T18:38:43.472Z,99331.50
2023-03-29T18:41:12.535Z,99331.28
2023-03-29T18:43:39.937Z,99332.78
2023-03-29T18:46:07.919Z,99332.38
2023-03-29T18:48:41.993Z,99331.78
2023-03-29T18:51:11.278Z,99340.00
2023-03-29T18:53:38.973Z,99338.19
2023-03-29T18:56:06.752Z,99325.47
2023-03-29T18:58:33.860Z,99327.13
2023-03-29T19:01:05.980Z,99327.13
2023-03-29T19:03:34.759Z,99334.09
2023-03-29T19:06:02.260Z,99322.69
2023-03-29T19:08:29.285Z,99337.47
2023-03-29T19:11:07.513Z,99341.44
2023-03-29T19:13:35.140Z,99346.66
2023-03-29T19:16:02.566Z,99350.25
2023-03-29T19:18:29.789Z,99345.28
2023-03-29T19:20:56.624Z,99344.97
2023-03-29T19:23:27.244Z,99349.59
2023-03-29T19:25:59.433Z,99342.47
2023-03-29T19:28:27.411Z,99342.56
2023-03-29T19:30:55.235Z,99349.75
2023-03-29T19:33:22.169Z,99345.81
2023-03-29T19:35:51.622Z,99353.28
2023-03-29T19:38:19.375Z,99342.97
2023-03-29T19:40:47.779Z,99350.78
2023-03-29T19:43:16.791Z,99349.75
2023-03-29T19:45:48.517Z,99352.00
2023-03-29T19:48:22.397Z,99356.66
2023-03-29T19:50:50.378Z,99357.38
2023-03-29T19:53:17.253Z,99364.19
2023-03-29T19:55:45.427Z,99376.50
2023-03-29T19:58:13.326Z,99382.56
2023-03-29T20:00:41.900Z,99370.34
2023-03-29T20:03:10.181Z,99375.16
2023-03-29T20:05:38.405Z,99374.66
2023-03-29T20:08:05.237Z,99375.38
2023-03-29T20:10:32.204Z,99367.03
2023-03-29T20:12:59.157Z,99373.41
2023-03-29T20:15:26.113Z,99375.88
2023-03-29T20:17:54.480Z,99382.63
2023-03-29T20:20:24.695Z,99379.13
2023-03-29T20:22:54.115Z,99392.66
2023-03-29T20:25:21.388Z,99382.56
2023-03-29T20:27:49.725Z,99387.56
2023-03-29T20:30:16.545Z,99390.59
2023-03-29T20:32:43.440Z,99391.25
2023-03-29T20:35:11.333Z,99393.03
2023-03-29T20:37:38.085Z,99400.75
2023-03-29T20:40:05.857Z,99398.91
2023-03-29T20:42:34.665Z,99402.97
2023-03-29T20:45:01.582Z,99411.13
2023-03-29T20:47:29.576Z,99412.41
2023-03-29T20:49:56.910Z,99417.69
2023-03-29T20:52:24.463Z,99426.81
2023-03-29T20:54:51.489Z,99422.97
2023-03-29T20:57:20.989Z,99420.59
2023-03-29T20:59:51.715Z,99421.66
2023-03-29T21:02:21.707Z,99428.59
2023-03-29T21:04:54.606Z,99419.28
2023-03-29T21:07:21.888Z,99431.50
2023-03-29T21:09:50.004Z,99438.41
2023-03-29T21:12:17.670Z,99428.47
2023-03-29T21:14:44.926Z,99431.53
2023-03-29T21:17:11.795Z,99434.28
2023-03-29T21:19:39.503Z,99435.84
2023-03-29T21:22:06.858Z,99441.53
2023-03-29T21:24:34.154Z,99441.56
2023-03-29T21:27:01.039Z,99437.03
2023-03-29T21:29:28.295Z,99443.78
2023-03-29T21:31:55.320Z,99442.13
2023-03-29T21:34:22.251Z,99448.91
2023-03-29T21:36:49.143Z,99444.34
2023-03-29T21:39:16.071Z,99454.72
2023-03-29T21:41:42.933Z,99443.25
2023-03-29T21:44:09.913Z,99445.47
2023-03-29T21:46:36.750Z,99446.25
2023-03-29T21:49:03.588Z,99448.44
2023-03-29T21:51:30.502Z,99446.06
2023-03-29T21:53:57.211Z,99458.59
2023-03-29T21:56:23.956Z,99467.94
2023-03-29T21:58:50.778Z,99467.00
2023-03-29T22:01:17.659Z,99462.59
2023-03-29T22:03:44.566Z,99462.50
2023-03-29T22:06:13.570Z,99462.16
2023-03-29T22:08:40.552Z,99458.38
2023-03-29T22:11:11.112Z,99470.69
2023-03-29T22:13:38.074Z,99472.13
2023-03-29T22:16:05.637Z,99478.38
2023-03-29T22:18:42.505Z,99479.31
2023-03-29T22:21:13.866Z,99477.66
2023-03-29T22:23:42.421Z,99479.28
2023-03-29T22:26:11.358Z,99487.00
2023-03-29T22:28:38.970Z,99489.00
2023-03-29T22:31:07.979Z,99488.34
2023-03-29T22:33:36.080Z,99485.63
2023-03-29T22:36:11.684Z,99494.13
2023-03-29T22:38:38.931Z,99494.44
2023-03-29T22:41:06.308Z,99482.00
2023-03-29T22:43:33.222Z,99487.19
2023-03-29T22:46:00.178Z,99490.41
2023-03-29T22:48:27.033Z,99483.16
2023-03-29T22:50:53.791Z,99501.34
2023-03-29T22:53:20.841Z,99491.53
2023-03-29T22:55:47.578Z,99491.78
2023-03-29T22:58:14.467Z,99489.03
2023-03-29T23:00:41.210Z,99497.88
2023-03-29T23:03:08.207Z,99498.38
2023-03-29T23:05:35.010Z,99498.75
2023-03-29T23:08:01.921Z,99492.34
2023-03-29T23:10:30.544Z,99498.84
2023-03-29T23:13:10.458Z,99496.53
2023-03-29T23:15:47.411Z,99493.94
2023-03-29T23:18:21.156Z,99502.63
2023-03-29T23:20:49.110Z,99505.13
2023-03-29T23:23:17.512Z,99506.00
2023-03-29T23:25:48.420Z,99498.69
2023-03-29T23:28:21.651Z,99495.09
2023-03-29T23:30:57.100Z,99503.16
2023-03-29T23:33:25.895Z,99504.41
2023-03-29T23:35:53.263Z,99499.75
2023-03-29T23:38:20.166Z,99501.97
2023-03-29T23:41:02.225Z,99491.13
2023-03-29T23:43:33.718Z,99501.09
2023-03-29T23:46:05.810Z,99487.31
2023-03-29T23:48:34.418Z,99488.78
2023-03-29T23:51:02.349Z,99500.75
2023-03-29T23:53:31.627Z,99495.09
2023-03-29T23:56:04.418Z,99495.06
2023-03-29T23:58:34.210Z,99487.53
